Time;durP1;ratioP1;P1;durP2;ratioP2;P2;SDS_P1;SDS_P2;PMS_P1;PMS_P2;Temp;Humidity;BMP_temperature;BMP_pressure;BME280_temperature;BME280_humidity;BME280_pressure;Samples;Min_cycle;Max_cycle;Signal;HPM_P1;HPM_P2
2021/08/15 00:00:17;;;;;;;1999.90;999.90;;;;;;;17.12;83.45;96059.22;4989682;28;20734;-71
2021/08/15 00:02:44;;;;;;;1999.90;999.90;;;;;;;17.18;83.12;96057.94;4989735;28;20196;-71
2021/08/15 00:05:12;;;;;;;1999.90;999.90;;;;;;;17.22;82.49;96056.19;4989365;28;20230;-71
2021/08/15 00:07:41;;;;;;;1999.90;999.90;;;;;;;17.27;82.32;96056.00;4989310;28;20679;-71
2021/08/15 00:10:09;;;;;;;1999.90;999.90;;;;;;;17.37;81.68;96052.22;4989235;28;20629;-71
2021/08/15 00:12:37;;;;;;;1999.90;999.90;;;;;;;17.20;82.29;96059.13;4989234;28;20257;-72
2021/08/15 00:15:05;;;;;;;1999.90;999.90;;;;;;;17.23;82.18;96052.50;4989551;28;20667;-70
2021/08/15 00:17:32;;;;;;;1999.90;999.90;;;;;;;17.39;81.11;96056.03;4989196;28;20299;-72
2021/08/15 00:20:00;;;;;;;1999.90;999.90;;;;;;;17.35;81.25;96054.38;4988993;28;20256;-72
2021/08/15 00:22:27;;;;;;;1999.90;999.90;;;;;;;17.27;82.29;96055.25;4989029;28;20215;-72
2021/08/15 00:24:56;;;;;;;1999.90;999.90;;;;;;;17.41;81.56;96053.09;4989003;28;20207;-71
2021/08/15 00:27:23;;;;;;;1999.90;999.90;;;;;;;17.60;80.16;96056.06;4988987;28;20675;-71
2021/08/15 00:29:50;;;;;;;1999.90;999.90;;;;;;;17.64;80.06;96057.69;4988553;28;20667;-71
2021/08/15 00:32:17;;;;;;;1999.90;999.90;;;;;;;17.78;79.27;96061.91;4989325;28;20200;-71
2021/08/15 00:34:44;;;;;;;1999.90;999.90;;;;;;;17.64;78.50;96067.44;4989319;28;20214;-71
2021/08/15 00:37:11;;;;;;;1999.90;999.90;;;;;;;17.41;79.33;96069.66;4988784;28;20264;-71
2021/08/15 00:39:38;;;;;;;1999.90;999.90;;;;;;;17.07;81.34;96069.91;4988839;28;20238;-71
2021/08/15 00:42:07;;;;;;;1999.90;999.90;;;;;;;16.92;82.35;96060.75;4989030;28;20204;-72
2021/08/15 00:44:34;;;;;;;1999.90;999.90;;;;;;;16.98;82.72;96061.34;4989078;28;20195;-72
2021/08/15 00:47:01;;;;;;;1999.90;999.90;;;;;;;17.09;82.02;96057.97;4989312;28;20211;-72
2021/08/15 00:49:28;;;;;;;1999.90;999.90;;;;;;;17.08;81.65;96061.72;5029359;28;20288;-71
2021/08/15 00:51:55;;;;;;;1999.90;999.90;;;;;;;17.01;81.76;96061.44;5090951;28;20248;-72
2021/08/15 00:54:23;;;;;;;1999.90;999.90;;;;;;;17.08;81.31;96059.09;5091358;28;20208;-71
2021/08/15 00:56:51;;;;;;;1999.90;999.90;;;;;;;17.09;81.31;96057.97;5091379;28;20204;-72
2021/08/15 00:59:20;;;;;;;1999.90;999.90;;;;;;;16.96;81.33;96053.00;5090947;28;20199;-71
2021/08/15 01:01:49;;;;;;;1999.90;999.90;;;;;;;16.87;81.89;96055.69;5090164;28;20210;-71
2021/08/15 01:04:16;;;;;;;1999.90;999.90;;;;;;;16.63;82.63;96058.16;5091007;28;20196;-71
2021/08/15 01:06:43;;;;;;;1999.90;999.90;;;;;;;16.32;84.34;96055.81;5091133;28;20187;-71
2021/08/15 01:09:10;;;;;;;1999.90;999.90;;;;;;;16.48;84.42;96056.03;5090977;28;20625;-71
2021/08/15 01:11:37;;;;;;;1999.90;999.90;;;;;;;16.47;84.27;96057.13;5091124;28;20563;-71
2021/08/15 01:14:06;;;;;;;1999.90;999.90;;;;;;;16.47;84.39;96054.50;5090908;28;20199;-72
2021/08/15 01:16:35;;;;;;;1999.90;999.90;;;;;;;16.50;84.42;96061.72;5090677;28;20211;-70
2021/08/15 01:19:02;;;;;;;1999.90;999.90;;;;;;;16.42;83.62;96059.91;5090650;28;20196;-71
2021/08/15 01:21:29;;;;;;;1999.90;999.90;;;;;;;16.38;83.55;96065.03;5090792;28;20216;-71
2021/08/15 01:23:57;;;;;;;1999.90;999.90;;;;;;;16.27;84.07;96056.75;5090593;28;20192;-71
2021/08/15 01:26:24;;;;;;;1999.90;999.90;;;;;;;16.34;83.95;96054.38;5090464;28;20191;-71
2021/08/15 01:28:53;;;;;;;1999.90;999.90;;;;;;;16.24;83.91;96059.97;5090478;28;20265;-72
2021/08/15 01:31:22;;;;;;;1999.90;999.90;;;;;;;16.20;84.15;96061.69;5090434;28;20196;-71
2021/08/15 01:33:49;;;;;;;1999.90;999.90;;;;;;;16.24;84.15;96049.50;5090690;28;20591;-71
2021/08/15 01:36:18;;;;;;;1999.90;999.90;;;;;;;16.24;84.28;96054.72;5090455;28;20199;-71
2021/08/15 01:38:46;;;;;;;1999.90;999.90;;;;;;;16.22;83.99;96051.69;5090564;28;20200;-71
2021/08/15 01:41:13;;;;;;;1999.90;999.90;;;;;;;16.13;84.70;96052.78;5090213;28;20661;-72
2021/08/15 01:43:49;;;;;;;1999.90;999.90;;;;;;;16.13;85.16;96055.41;5090079;28;20199;-71
2021/08/15 01:46:18;;;;;;;1999.90;999.90;;;;;;;16.08;85.14;96053.75;5090588;28;20286;-71
2021/08/15 01:48:46;;;;;;;1999.90;999.90;;;;;;;15.96;85.38;96058.84;5080544;28;21141;-72
2021/08/15 01:51:14;;;;;;;1999.90;999.90;;;;;;;15.72;84.55;96054.13;4987966;28;20260;-71
2021/08/15 01:53:41;;;;;;;1999.90;999.90;;;;;;;15.70;84.72;96053.66;4987628;28;20619;-71
2021/08/15 01:56:08;;;;;;;1999.90;999.90;;;;;;;15.60;85.20;96063.69;4987944;28;20957;-72
2021/08/15 01:58:35;;;;;;;1999.90;999.90;;;;;;;15.50;86.07;96060.28;4987955;28;20607;-72
2021/08/15 02:01:03;;;;;;;1999.90;999.90;;;;;;;15.57;86.09;96056.47;4983805;28;20223;-71
2021/08/15 02:03:31;;;;;;;1999.90;999.90;;;;;;;15.57;86.71;96054.63;4984823;28;20207;-71
2021/08/15 02:05:58;;;;;;;1999.90;999.90;;;;;;;15.60;86.58;96050.59;4985915;28;20230;-71
2021/08/15 02:08:25;;;;;;;1999.90;999.90;;;;;;;15.67;86.37;96062.16;4986365;28;20203;-71
2021/08/15 02:10:53;;;;;;;1999.90;999.90;;;;;;;15.63;86.52;96056.00;4987058;28;20195;-71
2021/08/15 02:13:20;;;;;;;1999.90;999.90;;;;;;;15.63;86.65;96061.25;4987060;28;20208;-71
2021/08/15 02:15:47;;;;;;;1999.90;999.90;;;;;;;15.62;86.81;96062.31;4987649;28;20583;-71
2021/08/15 02:18:14;;;;;;;1999.90;999.90;;;;;;;15.66;86.69;96058.00;4987279;28;20206;-71
2021/08/15 02:20:43;;;;;;;1999.90;999.90;;;;;;;15.68;86.77;96053.22;4987359;28;20219;-72
2021/08/15 02:23:11;;;;;;;1999.90;999.90;;;;;;;15.69;86.53;96059.25;4987392;28;20588;-71
2021/08/15 02:25:38;;;;;;;1999.90;999.90;;;;;;;15.68;86.54;96057.69;4987595;28;20202;-71
2021/08/15 02:28:06;;;;;;;1999.90;999.90;;;;;;;15.63;87.00;96057.84;4987519;28;20207;-72
2021/08/15 02:30:33;;;;;;;1999.90;999.90;;;;;;;15.69;86.72;96054.00;4987308;28;20207;-71
2021/08/15 02:33:00;;;;;;;1999.90;999.90;;;;;;;15.67;86.00;96056.16;4987465;28;20627;-72
2021/08/15 02:35:31;;;;;;;1999.90;999.90;;;;;;;15.66;85.65;96059.84;4987124;28;20268;-72
2021/08/15 02:38:00;;;;;;;1999.90;999.90;;;;;;;15.49;86.86;96064.00;4987438;28;20208;-71
2021/08/15 02:40:28;;;;;;;1999.90;999.90;;;;;;;15.42;86.69;96061.09;4987637;28;20756;-71
2021/08/15 02:42:56;;;;;;;1999.90;999.90;;;;;;;15.44;86.76;96061.53;4986880;28;20710;-72
2021/08/15 02:45:25;;;;;;;1999.90;999.90;;;;;;;15.36;87.62;96064.16;4987353;28;20667;-72
2021/08/15 02:47:52;;;;;;;1999.90;999.90;;;;;;;15.36;87.39;96061.53;4987264;28;20252;-71
2021/08/15 02:50:20;;;;;;;1999.90;999.90;;;;;;;15.34;87.92;96059.22;4986805;28;20613;-72
2021/08/15 02:52:47;;;;;;;1999.90;999.90;;;;;;;15.24;88.25;96053.56;4987206;28;20195;-71
2021/08/15 02:55:16;;;;;;;1999.90;999.90;;;;;;;15.05;89.14;96062.47;4987050;28;20205;-71
2021/08/15 02:57:43;;;;;;;1999.90;999.90;;;;;;;15.15;88.68;96063.22;4987089;28;20203;-71
2021/08/15 03:00:12;;;;;;;1999.90;999.90;;;;;;;15.04;88.77;96060.91;4986897;28;20203;-71
2021/08/15 03:02:39;;;;;;;1999.90;999.90;;;;;;;14.83;90.13;96060.00;4987013;28;20203;-71
2021/08/15 03:05:08;;;;;;;1999.90;999.90;;;;;;;14.86;90.79;96059.38;4987169;28;20203;-71
2021/08/15 03:07:36;;;;;;;1999.90;999.90;;;;;;;14.91;90.84;96061.06;4986863;28;20207;-72
2021/08/15 03:10:04;;;;;;;1999.90;999.90;;;;;;;14.94;91.20;96053.38;4987217;28;20207;-72
2021/08/15 03:12:33;;;;;;;1999.90;999.90;;;;;;;15.03;91.36;96062.03;4986961;28;20199;-72
2021/08/15 03:15:00;;;;;;;1999.90;999.90;;;;;;;14.97;91.41;96065.84;4986761;28;20695;-72
2021/08/15 03:17:27;;;;;;;1999.90;999.90;;;;;;;15.04;90.90;96070.66;4986900;28;20207;-72
2021/08/15 03:19:54;;;;;;;1999.90;999.90;;;;;;;14.86;91.42;96063.81;4986940;28;20203;-72
2021/08/15 03:22:21;;;;;;;1999.90;999.90;;;;;;;14.88;91.00;96064.31;4986783;28;20664;-72
2021/08/15 03:24:48;;;;;;;1999.90;999.90;;;;;;;14.96;90.27;96063.53;4986865;28;20203;-71
2021/08/15 03:27:16;;;;;;;1999.90;999.90;;;;;;;14.90;90.22;96064.75;4989655;28;20679;-71
2021/08/15 03:29:44;;;;;;;1999.90;999.90;;;;;;;14.84;90.23;96066.78;4989954;28;20203;-71
2021/08/15 03:32:11;;;;;;;1999.90;999.90;;;;;;;14.75;91.01;96068.56;4989767;28;20735;-72
2021/08/15 03:34:38;;;;;;;1999.90;999.90;;;;;;;14.72;91.39;96066.59;4989930;28;20675;-71
2021/08/15 03:37:06;;;;;;;1999.90;999.90;;;;;;;14.77;91.06;96065.66;4989832;28;20203;-72
2021/08/15 03:39:33;;;;;;;1999.90;999.90;;;;;;;14.76;91.68;96071.97;4989849;28;20205;-71
2021/08/15 03:42:00;;;;;;;1999.90;999.90;;;;;;;14.80;91.10;96071.06;4989995;28;20869;-72
2021/08/15 03:44:29;;;;;;;1999.90;999.90;;;;;;;14.77;91.55;96070.91;4990007;28;20207;-71
2021/08/15 03:46:57;;;;;;;1999.90;999.90;;;;;;;14.89;91.47;96073.72;4989823;28;20763;-71
2021/08/15 03:49:27;;;;;;;1999.90;999.90;;;;;;;14.82;90.80;96078.59;4989439;28;20235;-72
2021/08/15 03:51:55;;;;;;;1999.90;999.90;;;;;;;14.62;91.11;96079.94;4989935;28;20203;-72
2021/08/15 03:54:23;;;;;;;1999.90;999.90;;;;;;;14.48;90.84;96074.84;4989530;28;20288;-72
2021/08/15 03:56:51;;;;;;;1999.90;999.90;;;;;;;14.48;91.20;96080.06;4989559;28;20203;-72
2021/08/15 03:59:19;;;;;;;1999.90;999.90;;;;;;;14.54;90.82;96078.09;4989721;28;20203;-71
2021/08/15 04:01:47;;;;;;;1999.90;999.90;;;;;;;14.47;91.45;96078.53;4989656;28;20231;-71
2021/08/15 04:04:16;;;;;;;1999.90;999.90;;;;;;;14.48;91.30;96081.91;4989421;28;20238;-71
2021/08/15 04:06:43;;;;;;;1999.90;999.90;;;;;;;14.48;90.90;96077.47;4989484;28;20195;-72
2021/08/15 04:09:10;;;;;;;1999.90;999.90;;;;;;;14.79;90.67;96074.00;4989091;28;20210;-71
2021/08/15 04:11:38;;;;;;;1999.90;999.90;;;;;;;14.97;89.83;96086.03;4989585;28;20203;-71
2021/08/15 04:14:06;;;;;;;1999.90;999.90;;;;;;;15.25;89.35;96076.03;4989159;28;20679;-71
2021/08/15 04:16:33;;;;;;;1999.90;999.90;;;;;;;15.66;88.07;96080.81;4989621;28;20199;-71
2021/08/15 04:19:00;;;;;;;1999.90;999.90;;;;;;;16.08;86.44;96071.31;4989468;28;20199;-71
2021/08/15 04:21:28;;;;;;;1999.90;999.90;;;;;;;16.53;83.76;96071.59;4989040;28;20223;-72
2021/08/15 04:23:56;;;;;;;1999.90;999.90;;;;;;;16.97;80.82;96076.31;4989118;28;20199;-72
2021/08/15 04:26:23;;;;;;;1999.90;999.90;;;;;;;17.25;79.50;96075.78;4989534;28;20280;-72
2021/08/15 04:28:50;;;;;;;1999.90;999.90;;;;;;;17.47;78.93;96089.38;4989232;28;20195;-72
2021/08/15 04:31:17;;;;;;;1999.90;999.90;;;;;;;17.79;77.62;96085.25;4989028;28;20687;-73
2021/08/15 04:33:44;;;;;;;1999.90;999.90;;;;;;;18.00;76.36;96085.19;4988896;28;20736;-72
2021/08/15 04:36:11;;;;;;;1999.90;999.90;;;;;;;18.18;75.91;96091.06;4989103;28;20203;-72
2021/08/15 04:38:40;;;;;;;1999.90;999.90;;;;;;;18.40;74.98;96088.00;4988842;28;20256;-72
2021/08/15 04:41:07;;;;;;;1999.90;999.90;;;;;;;18.61;73.27;96083.44;4988817;28;20227;-72
2021/08/15 04:43:34;;;;;;;1999.90;999.90;;;;;;;18.77;73.12;96083.53;4988906;28;20244;-72
2021/08/15 04:46:02;;;;;;;1999.90;999.90;;;;;;;18.97;72.66;96089.75;4989074;28;20203;-73
2021/08/15 04:48:29;;;;;;;1999.90;999.90;;;;;;;19.21;71.40;96095.75;4988650;28;20300;-72
2021/08/15 04:50:56;;;;;;;1999.90;999.90;;;;;;;19.38;71.42;96094.69;4987715;28;20221;-72
2021/08/15 04:53:23;;;;;;;1999.90;999.90;;;;;;;19.38;70.78;96089.44;4987636;28;20755;-72
2021/08/15 04:55:52;;;;;;;1999.90;999.90;;;;;;;19.46;70.77;96093.84;4987976;28;20237;-72
2021/08/15 04:58:19;;;;;;;1999.90;999.90;;;;;;;19.57;70.83;96094.91;4987767;28;20207;-72
2021/08/15 05:00:46;;;;;;;1999.90;999.90;;;;;;;19.47;72.21;96098.03;4987530;28;20199;-72
2021/08/15 05:03:16;;;;;;;1999.90;999.90;;;;;;;19.37;72.93;96098.47;4987497;28;20199;-72
2021/08/15 05:05:43;;;;;;;1999.90;999.90;;;;;;;19.03;74.65;96104.25;4987618;28;20694;-72
2021/08/15 05:08:11;;;;;;;1999.90;999.90;;;;;;;19.24;74.17;96104.84;4987414;28;20199;-72
2021/08/15 05:10:38;;;;;;;1999.90;999.90;;;;;;;19.14;74.97;96105.31;4987882;28;20274;-72
2021/08/15 05:13:06;;;;;;;1999.90;999.90;;;;;;;19.28;74.71;96103.06;4987328;28;20204;-72
2021/08/15 05:15:33;;;;;;;1999.90;999.90;;;;;;;19.19;75.54;96105.06;4987655;28;20203;-72
2021/08/15 05:18:02;;;;;;;1999.90;999.90;;;;;;;19.20;76.04;96109.25;4987263;28;20203;-72
2021/08/15 05:20:29;;;;;;;1999.90;999.90;;;;;;;19.28;76.69;96110.97;4987375;28;20234;-72
2021/08/15 05:22:57;;;;;;;1999.90;999.90;;;;;;;19.26;76.42;96107.94;4987489;28;20227;-72
2021/08/15 05:25:24;;;;;;;1999.90;999.90;;;;;;;19.29;77.62;96112.53;4987370;28;20698;-72
2021/08/15 05:27:51;;;;;;;1999.90;999.90;;;;;;;19.11;78.13;96109.38;4987510;28;20298;-72
2021/08/15 05:30:20;;;;;;;1999.90;999.90;;;;;;;19.28;77.35;96110.97;4987495;28;20198;-73
2021/08/15 05:32:47;;;;;;;1999.90;999.90;;;;;;;19.34;76.90;96104.38;4987314;28;20203;-72
2021/08/15 05:35:14;;;;;;;1999.90;999.90;;;;;;;19.23;78.51;96103.31;4987158;28;20200;-72
2021/08/15 05:37:41;;;;;;;1999.90;999.90;;;;;;;19.27;78.63;96112.09;4987490;28;20245;-72
2021/08/15 05:40:09;;;;;;;1999.90;999.90;;;;;;;19.70;75.84;96103.53;4987220;28;20257;-73
2021/08/15 05:42:37;;;;;;;1999.90;999.90;;;;;;;20.05;74.05;96104.47;4986841;28;20230;-72
2021/08/15 05:45:04;;;;;;;1999.90;999.90;;;;;;;20.29;73.81;96106.19;4987032;28;20203;-72
2021/08/15 05:47:33;;;;;;;1999.90;999.90;;;;;;;20.16;75.59;96112.66;4986936;28;20203;-72
2021/08/15 05:50:00;;;;;;;1999.90;999.90;;;;;;;20.31;75.21;96119.84;4941740;28;1308493;-72
2021/08/15 05:52:27;;;;;;;1999.90;999.90;;;;;;;20.35;75.41;96104.09;4988037;28;20272;-72
2021/08/15 05:54:54;;;;;;;1999.90;999.90;;;;;;;20.40;75.44;96109.88;4987773;28;20208;-72
2021/08/15 05:57:21;;;;;;;1999.90;999.90;;;;;;;20.75;74.70;96101.25;4987914;28;20208;-71
2021/08/15 05:59:48;;;;;;;1999.90;999.90;;;;;;;21.00;73.91;96097.28;4987880;28;20203;-72
2021/08/15 06:02:16;;;;;;;1999.90;999.90;;;;;;;20.80;73.99;96093.06;4988022;28;20233;-72
2021/08/15 06:04:44;;;;;;;1999.90;999.90;;;;;;;20.87;72.24;96093.25;4987650;28;20203;-73
2021/08/15 06:07:13;;;;;;;1999.90;999.90;;;;;;;21.24;70.61;96093.66;4987519;28;20257;-72
2021/08/15 06:09:40;;;;;;;1999.90;999.90;;;;;;;21.66;68.99;96099.03;4987511;28;20207;-72
2021/08/15 06:12:08;;;;;;;1999.90;999.90;;;;;;;21.92;66.38;96095.75;4987416;28;20260;-72
2021/08/15 06:14:35;;;;;;;1999.90;999.90;;;;;;;21.99;66.99;96098.53;4986988;28;20206;-72
2021/08/15 06:17:03;;;;;;;1999.90;999.90;;;;;;;22.00;64.73;96103.50;4987706;28;20195;-72
2021/08/15 06:19:31;;;;;;;1999.90;999.90;;;;;;;22.21;65.15;96101.22;4987402;28;20233;-73
2021/08/15 06:22:00;;;;;;;1999.90;999.90;;;;;;;22.56;60.40;96090.44;4987195;28;20738;-73
2021/08/15 06:24:27;;;;;;;1999.90;999.90;;;;;;;22.66;57.33;96095.13;4987164;28;20203;-73
2021/08/15 06:26:54;;;;;;;1999.90;999.90;;;;;;;22.72;56.56;96085.75;4987527;28;20203;-73
2021/08/15 06:29:21;;;;;;;1999.90;999.90;;;;;;;22.63;55.79;96095.06;4987355;28;20204;-73
2021/08/15 06:31:48;;;;;;;1999.90;999.90;;;;;;;22.90;56.14;96090.56;4987286;28;20199;-72
2021/08/15 06:34:15;;;;;;;1999.90;999.90;;;;;;;23.02;55.06;96085.03;4986958;28;20251;-73
2021/08/15 06:36:42;;;;;;;1999.90;999.90;;;;;;;23.09;54.56;96085.91;4987105;28;20215;-73
2021/08/15 06:39:11;;;;;;;1999.90;999.90;;;;;;;23.43;55.21;96084.06;4987303;28;20219;-72
2021/08/15 06:41:38;;;;;;;1999.90;999.90;;;;;;;23.44;55.13;96082.94;4986879;28;20230;-72
2021/08/15 06:44:06;;;;;;;1999.90;999.90;;;;;;;23.73;54.63;96086.72;4986871;28;20264;-73
2021/08/15 06:46:33;;;;;;;1999.90;999.90;;;;;;;23.93;52.75;96080.09;4986967;28;20749;-73
2021/08/15 06:49:00;;;;;;;1999.90;999.90;;;;;;;23.94;52.50;96088.81;4986802;28;20237;-73
2021/08/15 06:51:28;;;;;;;1999.90;999.90;;;;;;;24.20;53.06;96088.75;4987120;28;20290;-73
2021/08/15 06:53:55;;;;;;;1999.90;999.90;;;;;;;24.33;51.31;96084.66;4987216;28;20284;-73
2021/08/15 06:56:23;;;;;;;1999.90;999.90;;;;;;;24.21;51.86;96084.94;4987180;28;20633;-73
2021/08/15 06:58:50;;;;;;;1999.90;999.90;;;;;;;24.44;52.34;96079.44;4987039;28;20207;-73
2021/08/15 07:01:18;;;;;;;1999.90;999.90;;;;;;;24.83;51.56;96082.38;4985574;28;20211;-73
2021/08/15 07:03:45;;;;;;;1999.90;999.90;;;;;;;25.02;49.55;96084.03;4986700;28;20298;-73
2021/08/15 07:06:12;;;;;;;1999.90;999.90;;;;;;;25.07;48.79;96083.66;4986955;28;20246;-72
2021/08/15 07:08:39;;;;;;;1999.90;999.90;;;;;;;25.18;49.02;96081.84;4986971;28;20207;-74
2021/08/15 07:11:06;;;;;;;1999.90;999.90;;;;;;;25.20;49.98;96080.34;4986708;28;20260;-73
2021/08/15 07:13:35;;;;;;;1999.90;999.90;;;;;;;25.13;49.42;96074.22;4986671;28;20264;-73
2021/08/15 07:16:04;;;;;;;1999.90;999.90;;;;;;;25.01;50.38;96087.81;4986519;28;20199;-73
2021/08/15 07:18:31;;;;;;;1999.90;999.90;;;;;;;24.93;49.45;96073.72;4986453;28;20195;-73
2021/08/15 07:21:00;;;;;;;1999.90;999.90;;;;;;;25.03;50.46;96085.56;4986870;28;20604;-72
2021/08/15 07:23:27;;;;;;;1999.90;999.90;;;;;;;24.91;50.53;96072.59;4986630;28;20685;-73
2021/08/15 07:25:54;;;;;;;1999.90;999.90;;;;;;;25.26;50.03;96075.41;4986569;28;20264;-73
2021/08/15 07:28:21;;;;;;;1999.90;999.90;;;;;;;25.50;49.54;96072.09;4986438;28;20211;-73
2021/08/15 07:30:50;;;;;;;1999.90;999.90;;;;;;;25.37;48.84;96067.47;4986499;28;20207;-74
2021/08/15 07:33:17;;;;;;;1999.90;999.90;;;;;;;25.10;48.51;96069.66;4986337;28;20679;-73
2021/08/15 07:35:44;;;;;;;1999.90;999.90;;;;;;;25.43;48.43;96071.31;4986708;28;20252;-74
2021/08/15 07:38:11;;;;;;;1999.90;999.90;;;;;;;25.94;47.66;96063.88;4986296;28;20249;-73
2021/08/15 07:40:39;;;;;;;1999.90;999.90;;;;;;;25.99;46.64;96071.50;4986308;28;20210;-73
2021/08/15 07:43:06;;;;;;;1999.90;999.90;;;;;;;26.29;44.57;96068.50;4986305;28;20219;-74
2021/08/15 07:45:34;;;;;;;1999.90;999.90;;;;;;;26.42;45.00;96066.97;4986650;28;20754;-74
2021/08/15 07:48:03;;;;;;;1999.90;999.90;;;;;;;26.39;47.16;96070.41;4986615;28;20598;-74
2021/08/15 07:50:35;;;;;;;1999.90;999.90;;;;;;;26.47;47.12;96063.16;4986093;28;20300;-74
2021/08/15 07:53:15;;;;;;;1999.90;999.90;;;;;;;26.56;46.95;96060.88;4986355;28;20187;-73
2021/08/15 07:55:43;;;;;;;1999.90;999.90;;;;;;;26.58;46.70;96057.84;4986641;28;20203;-73
2021/08/15 07:58:10;;;;;;;1999.90;999.90;;;;;;;26.86;45.73;96052.44;4986335;28;20207;-74
2021/08/15 08:00:37;;;;;;;1999.90;999.90;;;;;;;27.07;45.48;96054.34;4986399;28;20214;-73
2021/08/15 08:03:06;;;;;;;1999.90;999.90;;;;;;;26.91;45.31;96050.19;4986327;28;20296;-74
2021/08/15 08:05:33;;;;;;;1999.90;999.90;;;;;;;27.19;45.23;96048.59;4986280;28;20207;-73
2021/08/15 08:08:00;;;;;;;1999.90;999.90;;;;;;;27.26;43.96;96045.88;4986045;28;20203;-74
2021/08/15 08:10:27;;;;;;;1999.90;999.90;;;;;;;27.72;42.81;96048.38;4986326;28;20732;-74
2021/08/15 08:12:54;;;;;;;1999.90;999.90;;;;;;;27.77;41.33;96045.28;4988875;28;20199;-74
2021/08/15 08:15:22;;;;;;;1999.90;999.90;;;;;;;27.67;42.06;96040.75;4989117;28;20331;-73
2021/08/15 08:17:49;;;;;;;1999.90;999.90;;;;;;;27.66;42.56;96037.31;4989366;28;21046;-74
2021/08/15 08:20:21;;;;;;;1999.90;999.90;;;;;;;27.56;43.71;96032.03;4989156;28;20206;-74
2021/08/15 08:22:49;;;;;;;1999.90;999.90;;;;;;;27.78;44.36;96042.22;4989304;28;20208;-74
2021/08/15 08:25:17;;;;;;;1999.90;999.90;;;;;;;27.79;43.03;96035.75;4989174;28;20290;-74
2021/08/15 08:27:44;;;;;;;1999.90;999.90;;;;;;;27.77;43.31;96023.91;4989178;28;20199;-74
2021/08/15 08:30:12;;;;;;;1999.90;999.90;;;;;;;27.65;40.57;96027.03;4988930;28;20200;-74
2021/08/15 08:32:40;;;;;;;1999.90;999.90;;;;;;;27.92;41.94;96025.34;4989191;28;20199;-73
2021/08/15 08:35:08;;;;;;;1999.90;999.90;;;;;;;27.99;41.93;96029.88;4989238;28;20198;-74
2021/08/15 08:37:36;;;;;;;1999.90;999.90;;;;;;;27.97;41.58;96016.16;4988950;28;20199;-73
2021/08/15 08:40:04;;;;;;;1999.90;999.90;;;;;;;27.97;41.09;96022.25;4988941;28;20199;-74
2021/08/15 08:42:31;;;;;;;1999.90;999.90;;;;;;;28.25;41.33;96015.94;4988998;28;20699;-74
2021/08/15 08:45:02;;;;;;;1999.90;999.90;;;;;;;28.53;40.13;96014.94;4988858;28;20226;-74
2021/08/15 08:47:30;;;;;;;1999.90;999.90;;;;;;;28.64;40.10;96012.94;4988924;28;20192;-74
2021/08/15 08:49:58;;;;;;;1999.90;999.90;;;;;;;28.69;40.41;96009.84;4988564;28;20246;-74
2021/08/15 08:52:29;;;;;;;1999.90;999.90;;;;;;;28.55;38.82;96002.69;4988838;28;20199;-74
2021/08/15 08:54:58;;;;;;;1999.90;999.90;;;;;;;28.98;38.76;96000.38;4988922;28;20188;-74
2021/08/15 08:57:25;;;;;;;1999.90;999.90;;;;;;;29.13;37.45;95986.81;4989324;28;20343;-73
2021/08/15 08:59:53;;;;;;;1999.90;999.90;;;;;;;29.42;38.40;95988.00;4989189;28;20199;-74
2021/08/15 09:02:20;;;;;;;1999.90;999.90;;;;;;;29.16;38.80;95986.00;4988752;28;20238;-74
2021/08/15 09:04:48;;;;;;;1999.90;999.90;;;;;;;29.42;39.42;95988.75;4988552;28;20210;-74
2021/08/15 09:07:16;;;;;;;1999.90;999.90;;;;;;;29.64;38.38;95989.19;4988596;28;20481;-73
2021/08/15 09:09:51;;;;;;;1999.90;999.90;;;;;;;29.76;37.15;95985.22;4988476;28;20210;-74
2021/08/15 09:12:20;;;;;;;1999.90;999.90;;;;;;;29.49;38.00;95977.16;4988366;28;20187;-73
2021/08/15 09:14:48;;;;;;;1999.90;999.90;;;;;;;29.32;38.17;95978.94;4988376;28;20198;-74
2021/08/15 09:17:15;;;;;;;1999.90;999.90;;;;;;;29.46;36.92;95978.75;4988498;28;20188;-74
2021/08/15 09:19:45;;;;;;;1999.90;999.90;;;;;;;29.89;36.33;95976.22;4988591;28;20286;-74
2021/08/15 09:22:16;;;;;;;1999.90;999.90;;;;;;;30.31;35.44;95976.69;4988561;28;21048;-75
2021/08/15 09:24:51;;;;;;;1999.90;999.90;;;;;;;30.54;35.11;95975.94;4987439;28;20195;-74
2021/08/15 09:27:24;;;;;;;1999.90;999.90;;;;;;;30.19;35.87;95969.22;4988454;28;20744;-74
2021/08/15 09:30:13;;;;;;;1999.90;999.90;;;;;;;30.20;36.03;95960.03;4988503;28;20259;-74
2021/08/15 09:32:46;;;;;;;1999.90;999.90;;;;;;;30.42;35.69;95961.19;4988589;28;20187;-74
2021/08/15 09:35:22;;;;;;;1999.90;999.90;;;;;;;31.17;34.50;95960.56;4988519;28;20183;-74
2021/08/15 09:37:56;;;;;;;1999.90;999.90;;;;;;;31.27;34.07;95953.44;4988564;28;20183;-75
2021/08/15 09:40:26;;;;;;;1999.90;999.90;;;;;;;31.27;32.91;95953.44;4988391;28;20211;-73
2021/08/15 09:42:55;;;;;;;1999.90;999.90;;;;;;;31.43;32.71;95946.16;4987949;28;20260;-75
2021/08/15 09:45:34;;;;;;;1999.90;999.90;;;;;;;31.27;34.18;95946.16;4987964;28;20203;-74
2021/08/15 09:48:20;;;;;;;1999.90;999.90;;;;;;;30.98;33.69;95942.50;4988200;28;20260;-74
2021/08/15 09:51:04;;;;;;;1999.90;999.90;;;;;;;31.13;34.47;95938.41;4987965;28;20207;-74
2021/08/15 09:53:31;;;;;;;1999.90;999.90;;;;;;;31.57;33.04;95929.00;4988258;28;20210;-74
2021/08/15 09:55:58;;;;;;;1999.90;999.90;;;;;;;31.71;32.66;95931.34;4987909;28;20675;-75
2021/08/15 09:58:27;;;;;;;1999.90;999.90;;;;;;;31.63;30.93;95928.06;4987768;28;20200;-75
2021/08/15 10:00:56;;;;;;;1999.90;999.90;;;;;;;31.81;31.36;95913.47;4987725;28;20210;-75
2021/08/15 10:03:23;;;;;;;1999.90;999.90;;;;;;;32.08;30.56;95922.00;4988004;28;20250;-75
2021/08/15 10:05:50;;;;;;;1999.90;999.90;;;;;;;31.92;30.50;95916.66;4987367;28;20200;-74
2021/08/15 10:08:18;;;;;;;1999.90;999.90;;;;;;;31.99;30.80;95913.78;4987586;28;20204;-75
2021/08/15 10:10:46;;;;;;;1999.90;999.90;;;;;;;32.36;31.11;95910.53;4987905;28;20208;-74
2021/08/15 10:13:13;;;;;;;1999.90;999.90;;;;;;;32.41;30.97;95903.88;4987712;28;20215;-74
2021/08/15 10:15:41;;;;;;;1999.90;999.90;;;;;;;32.61;29.52;95895.66;4987427;28;20199;-74
2021/08/15 10:18:14;;;;;;;1999.90;999.90;;;;;;;32.65;29.86;95899.03;4987230;28;20199;-74
2021/08/15 10:20:42;;;;;;;1999.90;999.90;;;;;;;32.71;31.34;95892.69;4987709;28;20180;-74
2021/08/15 10:23:11;;;;;;;1999.90;999.90;;;;;;;32.73;30.26;95892.25;4987278;28;20230;-74
2021/08/15 10:25:41;;;;;;;1999.90;999.90;;;;;;;31.99;31.20;95889.56;4984462;28;20211;-74
2021/08/15 10:28:09;;;;;;;1999.90;999.90;;;;;;;32.12;31.59;95892.38;4981590;28;20267;-74
2021/08/15 10:30:51;;;;;;;1999.90;999.90;;;;;;;32.36;30.89;95885.56;4987110;28;20204;-74
2021/08/15 10:33:20;;;;;;;1999.90;999.90;;;;;;;32.00;30.36;95883.78;4987658;28;20191;-74
2021/08/15 10:36:32;;;;;;;1999.90;999.90;;;;;;;32.22;31.19;95878.63;4986904;28;20199;-74
2021/08/15 10:39:01;;;;;;;1999.90;999.90;;;;;;;32.02;31.05;95881.44;4987395;28;20199;-74
2021/08/15 10:41:50;;;;;;;1999.90;999.90;;;;;;;31.92;31.72;95876.31;4987155;28;20279;-74
2021/08/15 10:44:18;;;;;;;1999.90;999.90;;;;;;;32.11;31.68;95874.72;4987034;28;20227;-75
2021/08/15 10:47:12;;;;;;;1999.90;999.90;;;;;;;32.42;31.31;95870.41;4987405;28;20199;-74
2021/08/15 10:49:53;;;;;;;1999.90;999.90;;;;;;;32.96;30.50;95865.06;4987344;28;20277;-74
2021/08/15 10:52:37;;;;;;;1999.90;999.90;;;;;;;32.70;29.84;95858.13;4987077;28;20200;-73
2021/08/15 10:55:09;;;;;;;1999.90;999.90;;;;;;;32.84;28.87;95857.72;4987184;28;20214;-74
2021/08/15 10:57:48;;;;;;;1999.90;999.90;;;;;;;32.81;29.70;95851.25;4987003;28;20202;-75
2021/08/15 11:00:42;;;;;;;1999.90;999.90;;;;;;;33.14;29.70;95846.41;4987279;28;20188;-74